Airfield :
LOGIN :

Register | Disclaimer

   EN    FR    IT 

 










Legend :    VFR   Marginal VFR   IFR   Intensive IFR   Very Intensive IFR
Visi :
Ceiling :
>= 8 km
>= 3000ft
5 to 8 km
1000 to 3000 ft
1500m to 5 km
500 to 1000 ft
800 to 1500m
200 to 500 ft
< 800m
< 200 ft
Symbols :   Thunderstorms  Fog  Heavy snow  Heavy precipitations  Wind > 20 kt
SIGMETs :     Misc.  Thunderstorms  Icing  Turbulence  Mountain Waves  Volcanic Ashes







- Airport Elevation : 375 ft
- IATA code : MST


EHBK - Maastricht Aachen

CURRENT METAR :
  • 182255Z AUTO 25006KT 210V310 9999 -RA FEW023 SCT031 BKN038 06/05 Q1016

EXPIRED METARs :
  • 182225Z AUTO 24007KT 200V280 9999 -DZ FEW015CB OVC037 06/05 Q1016
  • 182155Z AUTO 25006KT 210V300 9999 -RA FEW015CB SCT027 OVC035 06/05 Q1016 RERAUP
  • 182125Z AUTO 24008KT 200V280 5000 -SHRA FEW005 SCT006 BKN008 FEW015CB 06/06 Q1016 REDZ TEMPO 6000 SHRA BKN005 SCT015CB
  • 182055Z AUTO 26010KT 200V320 9999 -UP BKN006 OVC008 06/05 Q1016 TEMPO 6000 SHRA BKN005 SCT015CB
  • 182025Z AUTO 23011KT 200V260 9999 BKN006 BKN008 OVC010 06/05 Q1017 TEMPO 6000 SHRA SCT015CB

TAF TAF EHBK
Valid from the 18 at 18:00 until the 20 at 00:00 UTC


181707Z 1818/1924 24012KT 9999 BKN025
TEMPO 1818/1902 26015G25KT 5000 SHRA BKN012 SCT015TCU BKN020
PROB30 1818/1902 BKN007
BECMG 1821/1824 30005KT
PROB40
TEMPO 1909/1918 29012G25KT 7000 -SHRA BKN012 SCT020TCU
TEMPO 1910/1916 27010G20KT
No reported NOTAMs for that airfield.



MET'MAP, your aeronautical weather chart ! - Copyright ORBIFLY December 2007 - Disclaimer

ORBIFLY MET'MAP TEAM :

Programming & Development : Alexandra Zaïnal
Concept & Development : Baudouin d'Aumeries
Co-Development & Prog : Marc-Olivier Méhu
Technical & hardware support : Manuel Goepfert

Contact : metmap@orbifly.com




SOURCES & CREDITS :

   NOAA